createdAt,value
2022-09-03T00:01:30.240Z,58.71
2022-09-03T00:05:05.846Z,58.60
2022-09-03T00:08:40.757Z,58.63
2022-09-03T00:12:15.532Z,58.79
2022-09-03T00:16:01.368Z,58.84
2022-09-03T00:19:35.955Z,59.04
2022-09-03T00:23:17.500Z,59.10
2022-09-03T00:26:54.842Z,59.08
2022-09-03T00:30:22.697Z,59.28
2022-09-03T00:33:53.086Z,59.24
2022-09-03T00:37:20.080Z,59.37
2022-09-03T00:40:58.312Z,59.61
2022-09-03T00:44:45.613Z,59.61
2022-09-03T00:48:27.929Z,59.52
2022-09-03T00:52:05.124Z,59.62
2022-09-03T00:55:44.175Z,59.49
2022-09-03T00:59:24.737Z,59.61
2022-09-03T01:03:09.154Z,59.56
2022-09-03T01:06:45.021Z,59.71
2022-09-03T01:10:27.637Z,59.83
2022-09-03T01:14:06.803Z,59.90
2022-09-03T01:17:46.316Z,60.03
2022-09-03T01:21:29.945Z,60.09
2022-09-03T01:25:14.598Z,60.14
2022-09-03T01:29:01.969Z,60.13
2022-09-03T01:32:35.193Z,60.34
2022-09-03T01:36:02.395Z,60.39
2022-09-03T01:39:36.751Z,60.38
2022-09-03T01:43:29.264Z,60.57
2022-09-03T01:47:13.217Z,60.64
2022-09-03T01:50:50.924Z,60.66
2022-09-03T01:54:31.957Z,60.91
2022-09-03T01:58:04.096Z,60.61
2022-09-03T02:01:34.557Z,60.76
2022-09-03T02:05:09.556Z,60.85
2022-09-03T02:08:36.762Z,60.80
2022-09-03T02:12:10.166Z,60.74
2022-09-03T02:15:41.463Z,60.87
2022-09-03T02:19:13.488Z,60.97
2022-09-03T02:22:41.496Z,60.95
2022-09-03T02:26:11.736Z,60.96
2022-09-03T02:29:38.659Z,61.02
2022-09-03T02:33:06.014Z,61.12
2022-09-03T02:36:35.010Z,61.24
2022-09-03T02:40:02.680Z,61.13
2022-09-03T02:43:39.146Z,61.36
2022-09-03T02:47:10.107Z,61.31
2022-09-03T02:50:46.118Z,61.54
2022-09-03T02:54:21.342Z,61.72
2022-09-03T02:57:49.150Z,61.73
2022-09-03T03:01:24.192Z,61.73
2022-09-03T03:04:58.654Z,61.66
2022-09-03T03:08:29.194Z,61.79
2022-09-03T03:11:56.851Z,61.75
2022-09-03T03:15:23.770Z,61.84
2022-09-03T03:18:51.374Z,61.80
2022-09-03T03:22:18.562Z,61.75
2022-09-03T03:25:46.008Z,61.67
2022-09-03T03:29:19.520Z,61.71
2022-09-03T03:32:47.591Z,61.69
2022-09-03T03:36:18.291Z,61.99
2022-09-03T03:39:47.283Z,61.83
2022-09-03T03:43:14.372Z,62.12
2022-09-03T03:46:43.273Z,62.14
2022-09-03T03:50:11.706Z,62.32
2022-09-03T03:53:40.420Z,62.39
2022-09-03T03:57:07.312Z,62.41
2022-09-03T04:00:39.689Z,62.58
2022-09-03T04:04:07.460Z,62.66
2022-09-03T04:07:34.397Z,62.65
2022-09-03T04:11:05.412Z,62.49
2022-09-03T04:14:32.623Z,62.57
2022-09-03T04:18:01.212Z,62.53
2022-09-03T04:21:30.873Z,62.50
2022-09-03T04:24:57.813Z,62.59
2022-09-03T04:28:25.380Z,62.58
2022-09-03T04:32:09.651Z,62.63
2022-09-03T04:35:37.338Z,62.79
2022-09-03T04:39:04.358Z,62.74
2022-09-03T04:42:31.388Z,62.82
2022-09-03T04:46:02.136Z,62.95
2022-09-03T04:49:29.106Z,63.10
2022-09-03T04:52:56.564Z,63.18
2022-09-03T04:56:26.051Z,63.23
2022-09-03T04:59:53.397Z,63.30
2022-09-03T05:03:22.321Z,63.47
2022-09-03T05:06:49.435Z,63.53
2022-09-03T05:10:20.715Z,63.71
2022-09-03T05:13:50.636Z,63.83
2022-09-03T05:17:17.818Z,63.67
2022-09-03T05:20:45.223Z,63.74
2022-09-03T05:24:12.795Z,63.71
2022-09-03T05:27:39.673Z,63.77
2022-09-03T05:31:08.554Z,63.63
2022-09-03T05:34:35.184Z,63.75
2022-09-03T05:38:02.478Z,63.65
2022-09-03T05:41:30.419Z,63.65
2022-09-03T05:44:57.837Z,63.70
2022-09-03T05:48:24.825Z,63.73
2022-09-03T05:51:51.509Z,63.63
2022-09-03T05:55:18.650Z,63.67
2022-09-03T05:58:48.362Z,63.46
2022-09-03T06:02:15.383Z,63.74
2022-09-03T06:05:50.994Z,63.55
2022-09-03T06:09:19.955Z,63.66
2022-09-03T06:12:50.081Z,63.67
2022-09-03T06:16:17.596Z,63.67
2022-09-03T06:19:44.391Z,63.39
2022-09-03T06:23:11.169Z,63.39
2022-09-03T06:26:38.404Z,63.23
2022-09-03T06:30:07.778Z,63.13
2022-09-03T06:33:36.365Z,62.78
2022-09-03T06:37:04.014Z,63.02
2022-09-03T06:40:31.157Z,63.01
2022-09-03T06:44:03.623Z,62.83
2022-09-03T06:47:32.139Z,62.73
2022-09-03T06:51:04.025Z,62.76
2022-09-03T06:54:31.322Z,62.67
2022-09-03T06:57:59.963Z,62.70
2022-09-03T07:01:30.364Z,62.67
2022-09-03T07:04:57.461Z,62.77
2022-09-03T07:08:24.612Z,62.60
2022-09-03T07:11:51.854Z,62.61
2022-09-03T07:15:20.162Z,62.67
2022-09-03T07:18:47.423Z,62.61
2022-09-03T07:22:15.033Z,62.64
2022-09-03T07:25:41.778Z,62.71
2022-09-03T07:29:10.212Z,62.48
2022-09-03T07:32:41.249Z,62.44
2022-09-03T07:36:10.330Z,62.27
2022-09-03T07:39:38.174Z,62.11
2022-09-03T07:43:05.099Z,62.17
2022-09-03T07:46:34.304Z,62.11
2022-09-03T07:50:01.303Z,61.97
2022-09-03T07:53:29.328Z,62.03
2022-09-03T07:56:57.529Z,61.97
2022-09-03T08:00:26.396Z,61.78
2022-09-03T08:03:57.024Z,61.66
2022-09-03T08:07:24.309Z,61.47
2022-09-03T08:10:54.066Z,61.47
2022-09-03T08:14:20.922Z,61.36
2022-09-03T08:17:49.903Z,61.26
2022-09-03T08:21:19.068Z,61.17
2022-09-03T08:24:46.194Z,61.04
2022-09-03T08:28:13.127Z,60.95
2022-09-03T08:31:40.337Z,60.74
2022-09-03T08:35:09.556Z,60.67
2022-09-03T08:38:38.412Z,60.49
2022-09-03T08:42:22.712Z,60.33
2022-09-03T08:45:49.513Z,60.04
2022-09-03T08:49:23.514Z,60.00
2022-09-03T08:52:53.129Z,59.66
2022-09-03T08:56:28.069Z,59.51
2022-09-03T08:59:57.700Z,59.37
2022-09-03T09:03:43.894Z,59.06
2022-09-03T09:07:16.888Z,58.80
2022-09-03T09:10:49.812Z,58.60
2022-09-03T09:14:29.222Z,58.26
2022-09-03T09:18:12.565Z,57.80
2022-09-03T09:21:47.603Z,57.52
2022-09-03T09:25:20.193Z,57.32
2022-09-03T09:28:56.015Z,57.10
2022-09-03T09:32:38.186Z,57.03
2022-09-03T09:36:10.024Z,56.98
2022-09-03T09:39:37.693Z,56.90
2022-09-03T09:43:12.542Z,56.27
2022-09-03T09:46:43.469Z,55.89
2022-09-03T09:50:27.312Z,55.53
2022-09-03T09:54:04.803Z,55.32
2022-09-03T09:57:34.948Z,54.92
2022-09-03T10:01:13.880Z,54.85
2022-09-03T10:04:44.224Z,54.64
2022-09-03T10:08:22.969Z,54.28
2022-09-03T10:11:56.798Z,53.98
2022-09-03T10:15:29.822Z,53.65
2022-09-03T10:19:04.654Z,53.29
2022-09-03T10:22:47.099Z,52.99
2022-09-03T10:26:32.114Z,52.64
2022-09-03T10:30:00.943Z,52.61
2022-09-03T10:33:33.899Z,52.48
2022-09-03T10:37:12.014Z,52.21
2022-09-03T10:40:44.021Z,51.75
2022-09-03T10:44:42.472Z,51.59
2022-09-03T10:48:29.951Z,51.20
2022-09-03T10:52:09.394Z,50.92
2022-09-03T10:55:43.673Z,50.55
2022-09-03T10:59:33.258Z,50.31
2022-09-03T11:03:27.186Z,50.15
2022-09-03T11:06:54.705Z,49.97
2022-09-03T11:10:30.806Z,49.61
2022-09-03T11:14:03.691Z,49.14
2022-09-03T11:17:36.881Z,48.79
2022-09-03T11:21:12.328Z,48.57
2022-09-03T11:24:42.803Z,48.31
2022-09-03T11:28:21.524Z,48.17
2022-09-03T11:32:00.383Z,47.99
2022-09-03T11:35:43.527Z,47.50
2022-09-03T11:39:26.837Z,47.44
2022-09-03T11:42:53.746Z,47.19
2022-09-03T11:51:03.643Z,46.98
2022-09-03T11:54:33.770Z,46.65
2022-09-03T11:58:11.599Z,46.40
2022-09-03T12:01:41.466Z,46.22
2022-09-03T12:05:30.758Z,45.93
2022-09-03T12:09:45.405Z,45.72
2022-09-03T12:13:28.718Z,45.74
2022-09-03T12:17:22.748Z,45.41
2022-09-03T12:21:08.755Z,45.27
2022-09-03T12:24:38.317Z,44.54
2022-09-03T12:28:20.516Z,44.37
2022-09-03T12:31:52.213Z,44.32
2022-09-03T12:39:16.196Z,44.47
2022-09-03T12:42:45.820Z,44.08
2022-09-03T12:46:33.584Z,43.82
2022-09-03T12:50:11.267Z,43.16
2022-09-03T12:53:39.582Z,42.54
2022-09-03T12:57:08.655Z,42.72
2022-09-03T13:00:44.587Z,42.88
2022-09-03T13:04:17.662Z,42.42
2022-09-03T13:07:52.050Z,42.21
2022-09-03T13:11:26.298Z,42.26
2022-09-03T13:14:54.176Z,41.95
2022-09-03T13:18:32.895Z,41.58
2022-09-03T13:22:11.169Z,41.30
2022-09-03T13:25:53.265Z,41.12
2022-09-03T13:29:39.051Z,41.12
2022-09-03T13:33:20.295Z,40.67
2022-09-03T13:36:53.104Z,40.52
2022-09-03T13:40:31.830Z,40.30
2022-09-03T13:44:09.142Z,40.01
2022-09-03T13:48:05.686Z,39.74
2022-09-03T13:51:40.131Z,39.19
2022-09-03T13:55:24.772Z,38.97
2022-09-03T13:59:05.947Z,38.99
2022-09-03T14:02:54.462Z,38.57
2022-09-03T14:06:56.160Z,38.33
2022-09-03T14:10:32.465Z,38.08
2022-09-03T14:14:11.994Z,37.86
2022-09-03T14:17:48.484Z,37.53
2022-09-03T14:21:24.303Z,37.63
2022-09-03T14:25:02.061Z,37.60
2022-09-03T14:28:38.525Z,37.48
2022-09-03T14:32:28.998Z,37.30
2022-09-03T14:36:14.172Z,37.01
2022-09-03T14:39:55.338Z,36.74
2022-09-03T14:43:56.319Z,36.59
2022-09-03T14:47:40.252Z,36.62
2022-09-03T14:51:24.793Z,36.50
2022-09-03T14:58:40.695Z,36.41
2022-09-03T15:02:40.876Z,36.20
2022-09-03T15:06:16.945Z,36.14
2022-09-03T15:09:56.149Z,35.99
2022-09-03T15:13:26.399Z,35.87
2022-09-03T15:17:01.052Z,35.79
2022-09-03T15:20:43.836Z,35.90
2022-09-03T15:24:21.879Z,35.99
2022-09-03T15:28:02.768Z,36.10
2022-09-03T15:31:45.680Z,36.14
2022-09-03T15:35:20.702Z,36.18
2022-09-03T15:38:58.105Z,36.44
2022-09-03T15:42:30.913Z,36.44
2022-09-03T15:46:01.525Z,36.58
2022-09-03T15:49:46.761Z,36.63
2022-09-03T15:53:27.213Z,36.80
2022-09-03T15:57:01.224Z,36.94
2022-09-03T16:00:40.935Z,36.97
2022-09-03T16:04:38.444Z,37.19
2022-09-03T16:08:19.993Z,37.30
2022-09-03T16:12:02.760Z,37.39
2022-09-03T16:15:35.763Z,37.51
2022-09-03T16:19:12.470Z,37.66
2022-09-03T16:22:47.860Z,37.73
2022-09-03T16:26:21.786Z,37.81
2022-09-03T16:30:00.606Z,37.99
2022-09-03T16:33:35.441Z,38.19
2022-09-03T16:37:11.487Z,38.30
2022-09-03T16:40:43.384Z,38.39
2022-09-03T16:44:22.103Z,38.60
2022-09-03T16:48:07.863Z,38.76
2022-09-03T16:51:41.323Z,38.94
2022-09-03T16:55:22.469Z,38.99
2022-09-03T16:59:03.775Z,39.19
2022-09-03T17:03:07.784Z,39.26
2022-09-03T17:06:51.643Z,39.43
2022-09-03T17:10:28.048Z,39.56
2022-09-03T17:14:21.498Z,39.79
2022-09-03T17:18:06.584Z,39.89
2022-09-03T17:21:50.465Z,40.10
2022-09-03T17:25:27.398Z,40.20
2022-09-03T17:29:14.005Z,40.39
2022-09-03T17:33:33.408Z,40.48
2022-09-03T17:37:15.653Z,40.74
2022-09-03T17:40:49.663Z,40.79
2022-09-03T17:44:29.511Z,40.86
2022-09-03T17:48:11.652Z,41.09
2022-09-03T17:51:46.622Z,41.13
2022-09-03T17:55:23.463Z,41.29
2022-09-03T17:58:56.507Z,41.40
2022-09-03T18:02:42.658Z,41.45
2022-09-03T18:06:22.822Z,41.61
2022-09-03T18:10:01.962Z,41.71
2022-09-03T18:13:52.051Z,41.76
2022-09-03T18:17:28.627Z,41.86
2022-09-03T18:21:24.300Z,41.98
2022-09-03T18:25:15.211Z,42.07
2022-09-03T18:29:04.587Z,42.12
2022-09-03T18:32:55.651Z,42.34
2022-09-03T18:36:43.728Z,42.38
2022-09-03T18:40:40.747Z,42.57
2022-09-03T18:44:35.303Z,42.66
2022-09-03T18:48:32.861Z,42.80
2022-09-03T18:52:30.781Z,42.97
2022-09-03T18:56:46.200Z,43.04
2022-09-03T19:00:37.453Z,43.20
2022-09-03T19:04:31.707Z,43.49
2022-09-03T19:08:28.271Z,43.55
2022-09-03T19:12:25.331Z,43.86
2022-09-03T19:16:19.316Z,43.96
2022-09-03T19:20:24.351Z,44.24
2022-09-03T19:24:14.352Z,44.30
2022-09-03T19:28:10.867Z,44.52
2022-09-03T19:32:11.822Z,44.66
2022-09-03T19:36:12.102Z,44.93
2022-09-03T19:40:21.758Z,45.05
2022-09-03T19:44:23.801Z,45.39
2022-09-03T19:48:24.272Z,45.43
2022-09-03T19:52:27.205Z,45.70
2022-09-03T19:56:16.401Z,45.91
2022-09-03T20:00:09.536Z,46.07
2022-09-03T20:03:57.575Z,46.40
2022-09-03T20:07:43.702Z,46.51
2022-09-03T20:11:20.041Z,46.78
2022-09-03T20:14:48.220Z,46.86
2022-09-03T20:18:26.724Z,47.05
2022-09-03T20:22:02.896Z,47.29
2022-09-03T20:25:55.664Z,47.62
2022-09-03T20:29:49.637Z,47.87
2022-09-03T20:33:35.524Z,47.86
2022-09-03T20:37:24.806Z,48.17
2022-09-03T20:41:07.265Z,48.27
2022-09-03T20:45:04.950Z,48.69
2022-09-03T20:48:41.943Z,48.68
2022-09-03T20:52:18.832Z,49.03
2022-09-03T20:55:51.442Z,48.86
2022-09-03T20:59:34.279Z,49.20
2022-09-03T21:03:31.397Z,49.47
2022-09-03T21:07:09.295Z,49.55
2022-09-03T21:10:50.423Z,49.56
2022-09-03T21:14:32.655Z,49.75
2022-09-03T21:18:20.779Z,49.81
2022-09-03T21:22:08.070Z,50.11
2022-09-03T21:25:40.143Z,49.87
2022-09-03T21:29:18.373Z,50.11
2022-09-03T21:32:56.059Z,50.25
2022-09-03T21:36:31.928Z,50.57
2022-09-03T21:40:02.459Z,50.65
2022-09-03T21:43:40.417Z,50.63
2022-09-03T21:47:18.336Z,50.65
2022-09-03T21:50:53.699Z,50.83
2022-09-03T21:54:28.535Z,51.10
2022-09-03T21:58:11.543Z,51.05
2022-09-03T22:01:51.132Z,51.34
2022-09-03T22:05:23.564Z,51.31
2022-09-03T22:08:58.193Z,51.54
2022-09-03T22:12:32.846Z,51.43
2022-09-03T22:16:13.725Z,51.64
2022-09-03T22:19:42.708Z,51.66
2022-09-03T22:23:14.211Z,51.73
2022-09-03T22:26:53.400Z,51.67
2022-09-03T22:30:27.877Z,51.96
2022-09-03T22:34:08.511Z,52.10
2022-09-03T22:37:53.324Z,52.03
2022-09-03T22:41:36.623Z,52.00
2022-09-03T22:45:29.790Z,52.30
2022-09-03T22:49:27.681Z,52.31
2022-09-03T22:53:09.859Z,52.30
2022-09-03T22:56:41.936Z,52.55
2022-09-03T23:00:17.941Z,52.78
2022-09-03T23:03:54.011Z,52.75
2022-09-03T23:07:28.807Z,52.63
2022-09-03T23:11:08.305Z,52.70
2022-09-03T23:14:51.798Z,52.55
2022-09-03T23:18:27.390Z,52.93
2022-09-03T23:21:59.157Z,52.79
2022-09-03T23:25:32.138Z,53.00
2022-09-03T23:29:12.397Z,53.20
2022-09-03T23:32:40.149Z,53.21
2022-09-03T23:36:26.999Z,53.06
2022-09-03T23:40:18.323Z,53.02
2022-09-03T23:44:31.721Z,53.16
2022-09-03T23:48:08.725Z,53.52
2022-09-03T23:51:51.139Z,53.31
2022-09-03T23:55:28.808Z,53.62
2022-09-03T23:59:13.665Z,53.60
